createdAt,value
2018-09-10T00:00:38.186Z,0
2018-09-10T00:01:46.833Z,0
2018-09-10T00:02:55.740Z,0
2018-09-10T00:04:04.654Z,0
2018-09-10T00:05:13.294Z,0
2018-09-10T00:06:21.942Z,0
2018-09-10T00:07:30.582Z,0
2018-09-10T00:08:39.234Z,0
2018-09-10T00:09:47.876Z,0
2018-09-10T00:10:56.521Z,0
2018-09-10T00:12:05.168Z,0
2018-09-10T00:13:14.071Z,0
2018-09-10T00:14:22.723Z,0
2018-09-10T00:15:31.365Z,0
2018-09-10T00:16:40.016Z,0
2018-09-10T00:17:48.914Z,0
2018-09-10T00:18:57.569Z,0
2018-09-10T00:20:06.209Z,0
2018-09-10T00:21:15.156Z,0
2018-09-10T00:22:23.788Z,0
2018-09-10T00:23:32.704Z,0
2018-09-10T00:24:41.348Z,0
2018-09-10T00:25:49.997Z,0
2018-09-10T00:26:58.634Z,0
2018-09-10T00:28:07.539Z,0
2018-09-10T00:29:16.188Z,0
2018-09-10T00:30:24.834Z,0
2018-09-10T00:31:33.482Z,0
2018-09-10T00:32:42.115Z,0
2018-09-10T00:33:50.764Z,0
2018-09-10T00:34:59.670Z,0
2018-09-10T00:36:08.326Z,0
2018-09-10T00:37:16.965Z,0
2018-09-10T00:38:25.615Z,0
2018-09-10T00:39:34.257Z,0
2018-09-10T00:40:42.917Z,0
2018-09-10T00:41:51.553Z,0
2018-09-10T00:43:00.200Z,0
2018-09-10T00:44:09.113Z,0
2018-09-10T00:45:17.768Z,0
2018-09-10T00:46:26.411Z,0
2018-09-10T00:47:35.051Z,0
2018-09-10T00:48:43.958Z,0
2018-09-10T00:49:52.599Z,0
2018-09-10T00:51:01.256Z,0
2018-09-10T00:52:09.899Z,0
2018-09-10T00:53:18.549Z,0
2018-09-10T00:54:27.185Z,0
2018-09-10T00:55:36.107Z,0
2018-09-10T00:56:45.010Z,0
2018-09-10T00:57:53.660Z,0
2018-09-10T00:59:02.302Z,0
2018-09-10T01:00:10.950Z,0
2018-09-10T01:01:19.591Z,0
2018-09-10T01:02:28.238Z,0
2018-09-10T01:03:37.135Z,0
2018-09-10T01:04:45.789Z,0
2018-09-10T01:05:54.440Z,0
2018-09-10T01:07:03.086Z,0
2018-09-10T01:08:12.262Z,0
2018-09-10T01:09:21.159Z,0
2018-09-10T01:10:29.809Z,0
2018-09-10T01:11:38.450Z,0
2018-09-10T01:12:47.369Z,0
2018-09-10T01:13:56.010Z,0
2018-09-10T01:15:04.910Z,0
2018-09-10T01:16:13.564Z,0
2018-09-10T01:17:22.198Z,0
2018-09-10T01:18:30.852Z,0
2018-09-10T01:19:39.495Z,0
2018-09-10T01:20:48.143Z,0
2018-09-10T01:21:57.043Z,0
2018-09-10T01:23:05.688Z,0
2018-09-10T01:24:14.605Z,0
2018-09-10T01:25:23.521Z,0
2018-09-10T01:26:32.168Z,0
2018-09-10T01:27:40.810Z,0
2018-09-10T01:28:49.730Z,0
2018-09-10T01:29:58.633Z,0
2018-09-10T01:31:07.557Z,0
2018-09-10T01:32:16.191Z,0
2018-09-10T01:33:24.843Z,0
2018-09-10T01:34:33.765Z,0
2018-09-10T01:35:42.413Z,0
2018-09-10T01:36:51.050Z,0
2018-09-10T01:37:59.697Z,0
2018-09-10T01:39:08.348Z,0
2018-09-10T01:40:16.998Z,0
2018-09-10T01:41:25.639Z,0
2018-09-10T01:42:34.281Z,0
2018-09-10T01:43:42.920Z,0
2018-09-10T01:44:51.564Z,0
2018-09-10T01:46:00.221Z,0
2018-09-10T01:47:08.863Z,0
2018-09-10T01:48:17.511Z,0
2018-09-10T01:49:26.151Z,0
2018-09-10T01:50:34.807Z,0
2018-09-10T01:51:43.446Z,0
2018-09-10T01:52:52.098Z,0
2018-09-10T01:54:00.732Z,0
2018-09-10T01:55:09.386Z,0
2018-09-10T01:56:18.028Z,0
2018-09-10T01:57:26.678Z,0
2018-09-10T01:58:35.583Z,0
2018-09-10T01:59:44.496Z,0
2018-09-10T02:00:53.149Z,0
2018-09-10T02:02:01.793Z,0
2018-09-10T02:03:10.443Z,0
2018-09-10T02:04:19.074Z,0
2018-09-10T02:05:27.723Z,0
2018-09-10T02:06:36.363Z,0
2018-09-10T02:07:45.279Z,0
2018-09-10T02:08:53.922Z,0
2018-09-10T02:10:02.570Z,0
2018-09-10T02:11:11.210Z,0
2018-09-10T02:12:19.864Z,0
2018-09-10T02:13:28.502Z,0
2018-09-10T02:14:37.150Z,0
2018-09-10T02:15:45.788Z,0
2018-09-10T02:16:54.440Z,0
2018-09-10T02:18:03.080Z,0
2018-09-10T02:19:11.724Z,0
2018-09-10T02:20:20.695Z,0
2018-09-10T02:21:29.298Z,0
2018-09-10T02:22:37.942Z,0
2018-09-10T02:23:46.585Z,0
2018-09-10T02:24:55.494Z,0
2018-09-10T02:26:04.133Z,0
2018-09-10T02:27:12.799Z,0
2018-09-10T02:28:21.695Z,0
2018-09-10T02:29:30.602Z,0
2018-09-10T02:30:39.248Z,0
2018-09-10T02:31:47.897Z,0
2018-09-10T02:32:56.808Z,0
2018-09-10T02:34:05.459Z,0
2018-09-10T02:35:14.364Z,0
2018-09-10T02:36:23.010Z,0
2018-09-10T02:37:31.925Z,0
2018-09-10T02:38:40.651Z,0
2018-09-10T02:39:49.210Z,0
2018-09-10T02:40:57.857Z,0
2018-09-10T02:42:06.502Z,0
2018-09-10T02:43:15.405Z,0
2018-09-10T02:44:24.063Z,0
2018-09-10T02:45:32.711Z,0
2018-09-10T02:46:41.618Z,0
2018-09-10T02:47:50.264Z,0
2018-09-10T02:48:58.913Z,0
2018-09-10T02:50:07.818Z,0
2018-09-10T02:51:16.467Z,0
2018-09-10T02:52:25.111Z,0
2018-09-10T02:53:33.766Z,0
2018-09-10T02:54:42.677Z,0
2018-09-10T02:55:51.582Z,0
2018-09-10T02:57:00.224Z,0
2018-09-10T02:58:09.134Z,0
2018-09-10T02:59:18.047Z,0
2018-09-10T03:00:26.956Z,0
2018-09-10T03:01:35.603Z,0
2018-09-10T03:02:44.245Z,0
2018-09-10T03:03:52.904Z,0
2018-09-10T03:05:01.547Z,0
2018-09-10T03:06:10.454Z,0
2018-09-10T03:07:19.096Z,0
2018-09-10T03:08:27.746Z,0
2018-09-10T03:09:36.916Z,0
2018-09-10T03:10:45.566Z,0
2018-09-10T03:11:54.208Z,0
2018-09-10T03:13:03.127Z,0
2018-09-10T03:14:12.037Z,0
2018-09-10T03:15:20.955Z,0
2018-09-10T03:16:29.604Z,0
2018-09-10T03:17:38.503Z,0
2018-09-10T03:18:47.154Z,0
2018-09-10T03:19:55.794Z,0
2018-09-10T03:21:04.449Z,0
2018-09-10T03:22:13.355Z,0
2018-09-10T03:23:22.284Z,0
2018-09-10T03:24:30.920Z,0
2018-09-10T03:25:39.580Z,0
2018-09-10T03:26:48.215Z,0
2018-09-10T03:27:57.125Z,0
2018-09-10T03:29:05.772Z,0
2018-09-10T03:30:14.430Z,0
2018-09-10T03:31:23.088Z,0
2018-09-10T03:32:31.752Z,0
2018-09-10T03:33:40.421Z,0
2018-09-10T03:34:49.426Z,0
2018-09-10T03:35:58.349Z,0
2018-09-10T03:37:06.987Z,0
2018-09-10T03:38:15.638Z,0
2018-09-10T03:39:24.277Z,0
2018-09-10T03:40:32.924Z,0
2018-09-10T03:41:41.829Z,0
2018-09-10T03:42:50.748Z,0
2018-09-10T03:43:59.383Z,0
2018-09-10T03:45:08.037Z,0
2018-09-10T03:46:16.686Z,0
2018-09-10T03:47:25.367Z,0
2018-09-10T03:48:33.967Z,0
2018-09-10T03:49:42.883Z,0
2018-09-10T03:50:51.526Z,0
2018-09-10T03:52:00.173Z,0
2018-09-10T03:53:08.818Z,0
2018-09-10T03:54:17.456Z,0
2018-09-10T03:55:26.105Z,0
2018-09-10T03:56:34.748Z,0
2018-09-10T03:57:43.406Z,0
2018-09-10T03:58:52.042Z,0
2018-09-10T04:00:00.691Z,0
2018-09-10T04:01:09.335Z,0
2018-09-10T04:02:18.267Z,0
2018-09-10T04:03:27.427Z,0
2018-09-10T04:04:36.075Z,0
2018-09-10T04:05:44.722Z,0
2018-09-10T04:06:53.642Z,0
2018-09-10T04:08:02.289Z,0
2018-09-10T04:09:10.932Z,0
2018-09-10T04:10:19.573Z,0
2018-09-10T04:11:28.492Z,0
2018-09-10T04:12:37.142Z,0
2018-09-10T04:13:45.790Z,0
2018-09-10T04:14:54.432Z,0
2018-09-10T04:16:03.072Z,0
2018-09-10T04:17:12.041Z,0
2018-09-10T04:18:20.633Z,0
2018-09-10T04:19:29.281Z,0
2018-09-10T04:20:38.185Z,0
2018-09-10T04:21:46.834Z,0
2018-09-10T04:22:55.751Z,0
2018-09-10T04:24:04.399Z,0
2018-09-10T04:25:13.038Z,0
2018-09-10T04:26:21.686Z,0
2018-09-10T04:27:30.330Z,0
2018-09-10T04:28:38.975Z,0
2018-09-10T04:29:47.622Z,0
2018-09-10T04:30:56.528Z,0
2018-09-10T04:32:05.171Z,4
2018-09-10T04:33:13.814Z,4
2018-09-10T04:34:22.464Z,0
2018-09-10T04:35:31.104Z,4
2018-09-10T04:36:39.751Z,4
2018-09-10T04:37:48.653Z,4
2018-09-10T04:38:57.302Z,8
2018-09-10T04:40:05.946Z,4
2018-09-10T04:41:14.864Z,8
2018-09-10T04:42:23.970Z,8
2018-09-10T04:43:32.547Z,12
2018-09-10T04:44:41.189Z,12
2018-09-10T04:45:49.832Z,12
2018-09-10T04:46:58.479Z,16
2018-09-10T04:48:07.122Z,16
2018-09-10T04:49:16.036Z,16
2018-09-10T04:50:24.949Z,20
2018-09-10T04:51:33.594Z,16
2018-09-10T04:52:42.234Z,20
2018-09-10T04:53:51.149Z,24
2018-09-10T04:55:00.062Z,28
2018-09-10T04:56:08.715Z,32
2018-09-10T04:57:17.354Z,32
2018-09-10T04:58:26.015Z,36
2018-09-10T04:59:34.935Z,44
2018-09-10T05:00:43.303Z,48
2018-09-10T05:01:52.218Z,56
2018-09-10T05:03:00.863Z,64
2018-09-10T05:04:09.507Z,68
2018-09-10T05:05:18.158Z,76
2018-09-10T05:06:26.805Z,84
2018-09-10T05:07:35.455Z,100
2018-09-10T05:08:44.101Z,112
2018-09-10T05:09:52.778Z,120
2018-09-10T05:11:01.740Z,132
2018-09-10T05:12:10.396Z,152
2018-09-10T05:13:19.052Z,168
2018-09-10T05:14:27.701Z,188
2018-09-10T05:15:36.630Z,204
2018-09-10T05:16:45.820Z,220
2018-09-10T05:17:54.467Z,228
2018-09-10T05:19:03.117Z,240
2018-09-10T05:20:11.757Z,256
2018-09-10T05:21:20.407Z,272
2018-09-10T05:22:29.052Z,292
2018-09-10T05:23:37.978Z,304
2018-09-10T05:24:46.628Z,300
2018-09-10T05:25:55.269Z,296
2018-09-10T05:27:03.925Z,288
2018-09-10T05:28:12.637Z,284
2018-09-10T05:29:21.226Z,288
2018-09-10T05:30:30.135Z,288
2018-09-10T05:31:39.051Z,284
2018-09-10T05:32:47.693Z,284
2018-09-10T05:33:56.875Z,288
2018-09-10T05:35:05.516Z,300
2018-09-10T05:36:14.429Z,328
2018-09-10T05:37:23.075Z,364
2018-09-10T05:38:31.983Z,400
2018-09-10T05:39:40.891Z,440
2018-09-10T05:40:49.535Z,484
2018-09-10T05:41:58.177Z,532
2018-09-10T05:43:06.820Z,568
2018-09-10T05:44:15.744Z,592
2018-09-10T05:45:24.391Z,604
2018-09-10T05:46:33.036Z,616
2018-09-10T05:47:41.675Z,640
2018-09-10T05:48:50.326Z,672
2018-09-10T05:49:58.974Z,704
2018-09-10T05:51:07.900Z,740
2018-09-10T05:52:16.540Z,764
2018-09-10T05:53:25.204Z,768
2018-09-10T05:54:33.847Z,728
2018-09-10T05:55:42.496Z,668
2018-09-10T05:56:51.397Z,608
2018-09-10T05:58:00.044Z,552
2018-09-10T05:59:08.688Z,500
2018-09-10T06:00:17.341Z,480
2018-09-10T06:01:25.988Z,476
2018-09-10T06:02:34.637Z,488
2018-09-10T06:03:43.278Z,524
2018-09-10T06:04:51.921Z,576
2018-09-10T06:06:00.571Z,664
2018-09-10T06:07:09.212Z,796
2018-09-10T06:08:18.137Z,936
2018-09-10T06:09:26.768Z,1068
2018-09-10T06:10:35.496Z,1216
2018-09-10T06:11:44.060Z,1368
2018-09-10T06:12:52.709Z,1460
2018-09-10T06:14:01.351Z,1580
2018-09-10T06:15:10.008Z,1632
2018-09-10T06:16:18.655Z,1672
2018-09-10T06:17:27.557Z,1724
2018-09-10T06:18:36.474Z,1816
2018-09-10T06:19:45.385Z,1808
2018-09-10T06:20:54.307Z,1732
2018-09-10T06:22:02.946Z,1704
2018-09-10T06:23:11.596Z,1640
2018-09-10T06:24:20.500Z,1676
2018-09-10T06:25:29.727Z,1836
2018-09-10T06:26:38.627Z,2120
2018-09-10T06:27:47.275Z,2344
2018-09-10T06:28:55.915Z,2472
2018-09-10T06:30:04.569Z,2644
2018-09-10T06:31:13.214Z,2732
2018-09-10T06:32:21.859Z,2736
2018-09-10T06:33:30.497Z,2728
2018-09-10T06:34:39.145Z,2716
2018-09-10T06:35:47.797Z,2636
2018-09-10T06:36:56.739Z,2516
2018-09-10T06:38:05.351Z,2328
2018-09-10T06:39:13.987Z,2144
2018-09-10T06:40:22.640Z,2032
2018-09-10T06:41:31.282Z,1948
2018-09-10T06:42:39.934Z,1880
2018-09-10T06:43:48.574Z,1764
2018-09-10T06:44:57.226Z,1672
2018-09-10T06:46:05.869Z,1680
2018-09-10T06:47:14.522Z,1828
2018-09-10T06:48:23.420Z,2112
2018-09-10T06:49:32.071Z,2476
2018-09-10T06:50:40.980Z,2708
2018-09-10T06:51:49.892Z,2812
2018-09-10T06:52:58.538Z,2820
2018-09-10T06:54:07.180Z,2764
2018-09-10T06:55:15.824Z,2640
2018-09-10T06:56:24.466Z,2524
2018-09-10T06:57:33.121Z,2416
2018-09-10T06:58:41.764Z,2320
2018-09-10T06:59:50.673Z,2256
2018-09-10T07:00:59.312Z,2248
2018-09-10T07:02:07.976Z,2272
2018-09-10T07:03:16.617Z,2296
2018-09-10T07:04:25.528Z,2216
2018-09-10T07:05:34.168Z,2196
2018-09-10T07:06:42.827Z,2240
2018-09-10T07:07:51.464Z,2344
2018-09-10T07:09:00.115Z,2452
2018-09-10T07:10:09.015Z,2556
2018-09-10T07:11:17.663Z,2708
2018-09-10T07:12:26.314Z,2896
2018-09-10T07:13:35.221Z,3128
2018-09-10T07:14:43.871Z,3352
2018-09-10T07:15:52.509Z,3496
2018-09-10T07:17:01.158Z,3576
2018-09-10T07:18:09.801Z,3700
2018-09-10T07:19:18.455Z,3856
2018-09-10T07:20:27.095Z,3984
2018-09-10T07:21:35.747Z,4096
2018-09-10T07:22:44.392Z,4184
2018-09-10T07:23:53.046Z,4344
2018-09-10T07:25:01.686Z,4500
2018-09-10T07:26:10.336Z,4848
2018-09-10T07:27:18.980Z,4672
2018-09-10T07:28:27.637Z,4600
2018-09-10T07:29:36.275Z,4432
2018-09-10T07:30:44.915Z,4504
2018-09-10T07:31:53.560Z,4228
2018-09-10T07:33:02.207Z,3916
2018-09-10T07:34:11.143Z,4128
2018-09-10T07:35:19.785Z,3800
2018-09-10T07:36:28.438Z,3816
2018-09-10T07:37:37.346Z,3752
2018-09-10T07:38:46.004Z,3716
2018-09-10T07:39:54.645Z,3636
2018-09-10T07:41:03.298Z,3440
2018-09-10T07:42:12.199Z,3328
2018-09-10T07:43:20.908Z,3192
2018-09-10T07:44:29.499Z,3036
2018-09-10T07:45:38.150Z,2872
2018-09-10T07:46:46.788Z,2732
2018-09-10T07:47:55.435Z,2676
2018-09-10T07:49:04.088Z,2696
2018-09-10T07:50:12.746Z,2756
2018-09-10T07:51:21.385Z,2780
2018-09-10T07:52:30.022Z,2796
2018-09-10T07:53:38.675Z,2796
2018-09-10T07:54:47.320Z,2868
2018-09-10T07:55:55.976Z,2952
2018-09-10T07:57:04.613Z,3000
2018-09-10T07:58:13.264Z,3020
2018-09-10T07:59:21.910Z,3096
2018-09-10T08:00:30.821Z,3196
2018-09-10T08:01:39.461Z,3236
2018-09-10T08:02:48.173Z,3116
2018-09-10T08:03:56.756Z,2944
2018-09-10T08:05:05.407Z,2760
2018-09-10T08:06:14.058Z,2692
2018-09-10T08:07:22.968Z,2696
2018-09-10T08:08:31.611Z,2792
2018-09-10T08:09:40.566Z,2872
2018-09-10T08:10:49.168Z,2936
2018-09-10T08:11:57.814Z,2996
2018-09-10T08:13:06.462Z,3052
2018-09-10T08:14:15.107Z,3032
2018-09-10T08:15:23.760Z,3036
2018-09-10T08:16:32.466Z,3096
2018-09-10T08:17:41.057Z,3208
2018-09-10T08:18:49.701Z,3284
2018-09-10T08:19:58.350Z,3324
2018-09-10T08:21:06.996Z,3420
2018-09-10T08:22:15.645Z,3524
2018-09-10T08:23:24.289Z,3628
2018-09-10T08:24:33.455Z,3744
2018-09-10T08:25:41.987Z,3868
2018-09-10T08:26:50.638Z,3948
2018-09-10T08:27:59.288Z,3888
2018-09-10T08:29:07.932Z,3756
2018-09-10T08:30:16.591Z,3676
2018-09-10T08:31:25.224Z,3740
2018-09-10T08:32:33.875Z,3904
2018-09-10T08:33:42.519Z,4084
2018-09-10T08:34:51.164Z,4144
2018-09-10T08:36:01.013Z,4024
2018-09-10T08:37:09.936Z,3796
2018-09-10T08:38:18.572Z,3580
2018-09-10T08:39:27.224Z,3380
2018-09-10T08:40:35.868Z,3228
2018-09-10T08:41:44.520Z,3116
2018-09-10T08:42:53.202Z,3060
2018-09-10T08:44:02.084Z,3000
2018-09-10T08:45:10.730Z,2968
2018-09-10T08:46:19.378Z,3072
2018-09-10T08:47:28.031Z,3256
2018-09-10T08:48:36.939Z,3504
2018-09-10T08:49:45.850Z,3636
2018-09-10T08:50:54.495Z,3668
2018-09-10T08:52:03.413Z,3552
2018-09-10T08:53:12.058Z,3496
2018-09-10T08:54:20.813Z,3564
2018-09-10T08:55:29.996Z,3736
2018-09-10T08:56:38.604Z,3984
2018-09-10T08:57:47.790Z,4212
2018-09-10T08:58:56.456Z,4336
2018-09-10T09:00:05.718Z,4400
2018-09-10T09:01:14.302Z,4344
2018-09-10T09:02:23.178Z,4324
2018-09-10T09:03:31.953Z,4240
2018-09-10T09:04:40.822Z,4180
2018-09-10T09:05:49.678Z,4176
2018-09-10T09:06:58.459Z,4196
2018-09-10T09:08:07.366Z,4296
2018-09-10T09:09:15.867Z,4496
2018-09-10T09:10:24.518Z,4752
2018-09-10T09:11:33.167Z,4856
2018-09-10T09:12:41.816Z,4788
2018-09-10T09:13:50.462Z,4644
2018-09-10T09:14:59.114Z,4508
2018-09-10T09:16:07.760Z,4424
2018-09-10T09:17:16.430Z,4296
2018-09-10T09:18:25.054Z,4232
2018-09-10T09:19:33.704Z,4388
2018-09-10T09:20:42.354Z,4788
2018-09-10T09:21:51.005Z,5524
2018-09-10T09:22:59.678Z,5784
2018-09-10T09:24:08.302Z,6324
2018-09-10T09:25:16.948Z,6484
2018-09-10T09:26:25.856Z,6316
2018-09-10T09:27:34.512Z,6060
2018-09-10T09:28:43.155Z,6016
2018-09-10T09:29:51.837Z,6144
2018-09-10T09:31:00.512Z,5952
2018-09-10T09:32:09.106Z,5740
2018-09-10T09:33:17.753Z,5652
2018-09-10T09:34:26.409Z,5568
2018-09-10T09:35:35.165Z,5472
2018-09-10T09:36:44.078Z,5396
2018-09-10T09:37:52.722Z,5268
2018-09-10T09:39:01.635Z,5152
2018-09-10T09:40:10.545Z,5212
2018-09-10T09:41:19.192Z,5236
2018-09-10T09:42:28.112Z,5240
2018-09-10T09:43:36.762Z,5284
2018-09-10T09:44:45.411Z,5276
2018-09-10T09:45:54.059Z,5112
2018-09-10T09:47:02.714Z,4908
2018-09-10T09:48:11.362Z,4660
2018-09-10T09:49:20.035Z,4308
2018-09-10T09:50:28.869Z,3816
2018-09-10T09:51:37.790Z,3512
2018-09-10T09:52:46.435Z,3432
2018-09-10T09:53:55.087Z,3552
2018-09-10T09:55:03.733Z,3880
2018-09-10T09:56:12.384Z,4392
2018-09-10T09:57:21.034Z,4848
2018-09-10T09:58:30.216Z,5160
2018-09-10T09:59:39.182Z,5296
2018-09-10T10:00:47.829Z,5304
2018-09-10T10:01:56.843Z,5340
2018-09-10T10:03:05.492Z,5464
2018-09-10T10:04:14.224Z,5596
2018-09-10T10:05:23.050Z,5696
2018-09-10T10:06:31.701Z,5824
2018-09-10T10:07:40.346Z,5700
2018-09-10T10:08:49.009Z,5268
2018-09-10T10:09:57.649Z,4788
2018-09-10T10:11:06.311Z,4352
2018-09-10T10:12:14.979Z,4084
2018-09-10T10:13:23.607Z,3904
2018-09-10T10:14:32.278Z,3764
2018-09-10T10:15:40.920Z,3752
2018-09-10T10:16:49.570Z,3844
2018-09-10T10:17:58.217Z,4136
2018-09-10T10:19:06.874Z,4564
2018-09-10T10:20:15.516Z,4948
2018-09-10T10:21:24.169Z,5232
2018-09-10T10:22:32.807Z,5352
2018-09-10T10:23:41.467Z,5292
2018-09-10T10:24:50.342Z,5144
2018-09-10T10:25:59.099Z,4796
2018-09-10T10:27:07.739Z,4452
2018-09-10T10:28:16.470Z,4364
2018-09-10T10:29:25.749Z,4456
2018-09-10T10:30:34.401Z,4468
2018-09-10T10:31:43.040Z,4496
2018-09-10T10:32:51.739Z,4496
2018-09-10T10:34:00.611Z,4556
2018-09-10T10:35:09.526Z,4380
2018-09-10T10:36:18.183Z,4116
2018-09-10T10:37:26.824Z,4056
2018-09-10T10:38:35.477Z,4252
2018-09-10T10:39:44.121Z,4472
2018-09-10T10:40:52.780Z,4592
2018-09-10T10:42:01.419Z,4732
2018-09-10T10:43:10.073Z,4780
2018-09-10T10:44:18.717Z,4692
2018-09-10T10:45:27.376Z,4700
2018-09-10T10:46:36.015Z,4624
2018-09-10T10:47:44.667Z,4384
2018-09-10T10:48:53.315Z,4120
2018-09-10T10:50:01.979Z,3852
2018-09-10T10:51:10.627Z,3572
2018-09-10T10:52:19.271Z,3464
2018-09-10T10:53:27.918Z,3568
2018-09-10T10:54:36.624Z,3704
2018-09-10T10:55:45.308Z,3868
2018-09-10T10:56:53.955Z,4080
2018-09-10T10:58:02.607Z,4236
2018-09-10T10:59:11.246Z,4376
2018-09-10T11:00:19.904Z,4512
2018-09-10T11:01:28.820Z,4600
2018-09-10T11:02:37.514Z,4744
2018-09-10T11:03:46.112Z,4828
2018-09-10T11:04:54.768Z,4820
2018-09-10T11:06:03.413Z,4892
2018-09-10T11:07:12.065Z,5144
2018-09-10T11:08:20.709Z,5348
2018-09-10T11:09:29.359Z,5472
2018-09-10T11:10:38.286Z,5584
2018-09-10T11:11:47.195Z,5788
2018-09-10T11:12:55.847Z,5848
2018-09-10T11:14:04.492Z,5748
2018-09-10T11:15:13.139Z,5620
2018-09-10T11:16:21.789Z,5688
2018-09-10T11:17:30.443Z,5844
2018-09-10T11:18:39.087Z,5968
2018-09-10T11:19:47.736Z,6052
2018-09-10T11:20:56.416Z,6028
2018-09-10T11:22:05.069Z,6028
2018-09-10T11:23:13.716Z,6004
2018-09-10T11:24:22.368Z,5956
2018-09-10T11:25:31.015Z,5968
2018-09-10T11:26:39.675Z,5988
2018-09-10T11:27:48.885Z,5836
2018-09-10T11:28:57.522Z,5648
2018-09-10T11:30:06.702Z,5308
2018-09-10T11:31:15.348Z,5008
2018-09-10T11:32:24.004Z,4944
2018-09-10T11:33:32.651Z,4944
2018-09-10T11:34:41.375Z,4960
2018-09-10T11:35:50.213Z,4860
2018-09-10T11:36:58.868Z,4824
2018-09-10T11:38:08.042Z,4804
2018-09-10T11:39:16.690Z,4860
2018-09-10T11:40:25.336Z,4884
2018-09-10T11:41:33.990Z,5028
2018-09-10T11:42:42.638Z,5160
2018-09-10T11:43:51.290Z,5180
2018-09-10T11:44:59.937Z,5156
2018-09-10T11:46:08.850Z,5180
2018-09-10T11:47:17.496Z,5208
2018-09-10T11:48:26.148Z,5252
2018-09-10T11:49:34.802Z,5288
2018-09-10T11:50:43.446Z,5252
2018-09-10T11:51:52.095Z,5184
2018-09-10T11:53:00.786Z,5180
2018-09-10T11:54:10.024Z,5088
2018-09-10T11:55:19.212Z,4904
2018-09-10T11:56:28.141Z,4724
2018-09-10T11:57:36.822Z,4620
2018-09-10T11:58:45.479Z,4556
2018-09-10T11:59:54.118Z,4548
2018-09-10T12:01:02.783Z,4680
2018-09-10T12:02:11.530Z,4780
2018-09-10T12:03:20.201Z,4784
2018-09-10T12:04:28.883Z,4716
2018-09-10T12:05:37.579Z,4692
2018-09-10T12:06:46.287Z,4724
2018-09-10T12:07:54.936Z,4780
2018-09-10T12:09:04.231Z,4744
2018-09-10T12:10:12.898Z,4604
2018-09-10T12:11:21.581Z,4448
2018-09-10T12:12:30.804Z,4304
2018-09-10T12:13:39.925Z,4108
2018-09-10T12:14:48.578Z,3976
2018-09-10T12:15:57.514Z,3844
2018-09-10T12:17:06.170Z,3432
2018-09-10T12:18:14.824Z,3168
2018-09-10T12:19:23.492Z,3136
2018-09-10T12:20:32.438Z,3404
2018-09-10T12:21:41.172Z,3712
2018-09-10T12:22:49.729Z,4056
2018-09-10T12:23:58.381Z,4360
2018-09-10T12:25:07.038Z,4508
2018-09-10T12:26:15.959Z,4472
2018-09-10T12:27:24.596Z,4416
2018-09-10T12:28:33.355Z,4240
2018-09-10T12:29:42.388Z,3880
2018-09-10T12:30:51.056Z,3848
2018-09-10T12:32:00.488Z,3832
2018-09-10T12:33:09.176Z,3936
2018-09-10T12:34:18.179Z,3984
2018-09-10T12:35:27.300Z,4456
2018-09-10T12:36:36.306Z,4868
2018-09-10T12:37:44.962Z,5088
2018-09-10T12:38:53.673Z,5332
2018-09-10T12:40:02.332Z,5716
2018-09-10T12:41:10.980Z,6080
2018-09-10T12:42:19.634Z,6276
2018-09-10T12:43:28.282Z,6224
2018-09-10T12:44:36.927Z,6196
2018-09-10T12:45:45.588Z,6156
2018-09-10T12:46:54.231Z,6184
2018-09-10T12:48:02.886Z,6304
2018-09-10T12:49:11.524Z,6592
2018-09-10T12:50:20.185Z,5768
2018-09-10T12:51:28.832Z,5772
2018-09-10T12:52:37.481Z,5808
2018-09-10T12:53:46.121Z,5440
2018-09-10T12:54:54.778Z,5004
2018-09-10T12:56:03.426Z,5188
2018-09-10T12:57:12.070Z,5312
2018-09-10T12:58:20.728Z,5220
2018-09-10T12:59:29.394Z,6480
2018-09-10T13:00:38.024Z,6564
2018-09-10T13:01:46.671Z,6356
2018-09-10T13:02:55.319Z,6296
2018-09-10T13:04:03.996Z,6372
2018-09-10T13:05:12.631Z,6452
2018-09-10T13:06:21.611Z,6224
2018-09-10T13:07:30.279Z,5984
2018-09-10T13:08:38.940Z,5836
2018-09-10T13:09:47.662Z,5652
2018-09-10T13:10:56.328Z,5496
2018-09-10T13:12:05.239Z,5424
2018-09-10T13:13:14.141Z,5388
2018-09-10T13:14:22.957Z,5716
2018-09-10T13:15:31.612Z,5556
2018-09-10T13:16:40.255Z,5288
2018-09-10T13:17:48.908Z,5120
2018-09-10T13:18:57.637Z,5140
2018-09-10T13:20:06.615Z,5068
2018-09-10T13:21:15.321Z,4984
2018-09-10T13:22:24.162Z,4900
2018-09-10T13:23:33.285Z,4876
2018-09-10T13:24:41.983Z,4684
2018-09-10T13:25:50.912Z,4148
2018-09-10T13:26:59.552Z,3972
2018-09-10T13:28:08.208Z,3928
2018-09-10T13:29:16.856Z,3980
2018-09-10T13:30:25.517Z,3740
2018-09-10T13:31:34.158Z,3640
2018-09-10T13:32:42.811Z,3716
2018-09-10T13:33:51.457Z,3728
2018-09-10T13:35:00.114Z,3968
2018-09-10T13:36:08.763Z,4096
2018-09-10T13:37:17.408Z,3992
2018-09-10T13:38:26.056Z,3928
2018-09-10T13:39:34.704Z,3912
2018-09-10T13:40:43.370Z,3772
2018-09-10T13:41:52.283Z,3832
2018-09-10T13:43:00.944Z,3864
2018-09-10T13:44:09.580Z,3416
2018-09-10T13:45:18.238Z,3024
2018-09-10T13:46:26.882Z,2948
2018-09-10T13:47:35.539Z,3084
2018-09-10T13:48:44.178Z,3408
2018-09-10T13:49:52.852Z,3416
2018-09-10T13:51:01.485Z,2924
2018-09-10T13:52:10.137Z,2552
2018-09-10T13:53:18.778Z,2692
2018-09-10T13:54:27.434Z,3112
2018-09-10T13:55:36.089Z,3480
2018-09-10T13:56:44.999Z,3780
2018-09-10T13:57:53.652Z,3956
2018-09-10T13:59:02.299Z,3840
2018-09-10T14:00:10.950Z,3744
2018-09-10T14:01:19.627Z,3588
2018-09-10T14:02:28.252Z,3236
2018-09-10T14:03:36.897Z,2972
2018-09-10T14:04:45.815Z,2912
2018-09-10T14:05:54.463Z,2928
2018-09-10T14:07:03.757Z,3068
2018-09-10T14:08:12.404Z,3172
2018-09-10T14:09:21.061Z,3148
2018-09-10T14:10:30.544Z,3120
2018-09-10T14:11:39.462Z,3120
2018-09-10T14:12:48.109Z,2980
2018-09-10T14:13:56.761Z,2892
2018-09-10T14:15:05.407Z,2956
2018-09-10T14:16:14.054Z,3036
2018-09-10T14:17:22.976Z,2956
2018-09-10T14:18:31.628Z,2800
2018-09-10T14:19:40.289Z,2684
2018-09-10T14:20:48.933Z,2640
2018-09-10T14:21:57.588Z,2540
2018-09-10T14:23:06.238Z,2424
2018-09-10T14:24:14.890Z,2432
2018-09-10T14:25:23.535Z,2480
2018-09-10T14:26:32.191Z,2524
2018-09-10T14:27:40.843Z,2600
2018-09-10T14:28:49.495Z,2660
2018-09-10T14:29:58.139Z,2616
2018-09-10T14:31:06.791Z,2604
2018-09-10T14:32:15.442Z,2612
2018-09-10T14:33:24.093Z,2636
2018-09-10T14:34:32.807Z,2616
2018-09-10T14:35:41.389Z,2616
2018-09-10T14:36:50.039Z,2668
2018-09-10T14:37:58.688Z,2608
2018-09-10T14:39:07.614Z,2460
2018-09-10T14:40:16.261Z,2392
2018-09-10T14:41:24.910Z,2352
2018-09-10T14:42:33.820Z,2284
2018-09-10T14:43:42.478Z,2168
2018-09-10T14:44:51.126Z,2136
2018-09-10T14:45:59.776Z,1900
2018-09-10T14:47:08.423Z,1844
2018-09-10T14:48:17.344Z,1880
2018-09-10T14:49:26.261Z,1948
2018-09-10T14:50:34.928Z,1708
2018-09-10T14:51:44.180Z,1520
2018-09-10T14:52:52.825Z,1408
2018-09-10T14:54:01.477Z,1220
2018-09-10T14:55:10.129Z,1480
2018-09-10T14:56:18.772Z,1692
2018-09-10T14:57:27.698Z,1812
2018-09-10T14:58:36.715Z,1972
2018-09-10T14:59:45.371Z,1968
2018-09-10T15:00:54.018Z,2104
2018-09-10T15:02:02.680Z,2160
2018-09-10T15:03:11.315Z,2200
2018-09-10T15:04:19.986Z,2268
2018-09-10T15:05:28.614Z,2352
2018-09-10T15:06:37.271Z,2404
2018-09-10T15:07:46.180Z,2416
2018-09-10T15:08:54.829Z,2356
2018-09-10T15:10:04.066Z,2324
2018-09-10T15:11:12.712Z,2288
2018-09-10T15:12:21.372Z,2224
2018-09-10T15:13:30.013Z,2120
2018-09-10T15:14:39.178Z,2112
2018-09-10T15:15:47.658Z,2116
2018-09-10T15:16:56.316Z,2008
2018-09-10T15:18:04.960Z,1788
2018-09-10T15:19:13.670Z,1664
2018-09-10T15:20:23.104Z,1596
2018-09-10T15:21:31.764Z,1612
2018-09-10T15:22:40.418Z,1628
2018-09-10T15:23:49.329Z,1632
2018-09-10T15:24:58.234Z,1588
2018-09-10T15:26:06.949Z,1528
2018-09-10T15:27:16.062Z,1468
2018-09-10T15:28:24.720Z,1408
2018-09-10T15:29:33.376Z,1408
2018-09-10T15:30:42.015Z,1480
2018-09-10T15:31:50.668Z,1572
2018-09-10T15:32:59.316Z,1680
2018-09-10T15:34:08.500Z,1820
2018-09-10T15:35:17.140Z,1908
2018-09-10T15:36:25.795Z,1928
2018-09-10T15:37:34.706Z,1976
2018-09-10T15:38:43.366Z,2072
2018-09-10T15:39:52.267Z,2160
2018-09-10T15:41:00.919Z,2252
2018-09-10T15:42:09.825Z,2284
2018-09-10T15:43:18.488Z,2304
2018-09-10T15:44:27.404Z,2256
2018-09-10T15:45:36.053Z,2176
2018-09-10T15:46:44.704Z,2100